Talladega, AL

12:01 PM CDT on September 05, 2015 (GMT -0500)
KALTALLA6 | | Change Station
CLOSE
Current Station
Personal Weather Station
Location: Talladega, AL
Elevation: 596 ft
Nearby Weather Stations

Elev 596 ft 33.40 °N, 86.12 °W | Updated 14 minutes ago

Clear
Clear
89.5 °F
Feels Like 102 °F
N
0.0
Wind Variable Wind from East
Gusts 4.0 mph

Today
High -- | Low -- °F
--% Chance of Precip.
Yesterday
High -- | Low -- °F
Precip. -- in
6:21 AM 7:04 PM
Waning Gibbous, 47% visible
Pressure 30.07 in
Visibility 8.0 miles
Clouds Clear
Heat Index 102 °F
Dew Point 77 °F
Humidity 66%
Rainfall 0.00 in
Snow Depth Not available.
UV 6.6 out of 12
Pollen 9.30 out of 12
Air Quality Not available.
Flu Activity Not available.
METAR KANB 051653Z AUTO 11007KT 8SM CLR 31/21 A3010 RMK AO2 SLP183 T03060211
Pressure 30.07 in
Visibility 8.0 miles
Clouds Clear
Heat Index 102 °F
Dew Point 77 °F
Humidity 66%
Rainfall 0.00 in
Snow Depth Not available.
UV 6.6 out of 12
Pollen 9.30 out of 12
Air Quality Not available.
Flu Activity Not available.
METAR KANB 051653Z AUTO 11007KT 8SM CLR 31/21 A3010 RMK AO2 SLP183 T03060211

10-Day Weather Forecast

×

Almanac

Astronomy

Sep. 05, 2015 Rise Set
Actual Time
Civil Twilight
Nautical Twilight
Astronomical Twilight
Moon
Length of Visible Light
Length of Day
Tomorrow will be .
, % of the Moon is Illuminated

Today's Extremes

State Highs State Lows

Community

WunderPhotos

Upload Photos

1,852,503 photos uploaded!

WunderBlogs® & News

Nearby

Air Quality

  Air Quality AQ Index Pollutant
Not available.

Snow Depth

Station Depth Elevation

Earthquake Activity

City Distance Mag. Time & Date
Minimum magnitude displayed is 2.5.

Coastal Water Temperatures

Place Temperature

Stations

Nearby Weather Stations

Station Location Temp. Windchill Dew Point Humidity Wind Precip. Elev Updated Type